createdAt,value
2023-03-17T00:02:35.346Z,0.7
2023-03-17T00:14:35.329Z,0.6
2023-03-17T00:26:35.340Z,0.6
2023-03-17T00:38:35.332Z,0.8
2023-03-17T00:50:35.348Z,0.8
2023-03-17T01:02:35.338Z,0.8
2023-03-17T01:14:37.822Z,0.6
2023-03-17T01:26:35.327Z,0.6
2023-03-17T01:38:35.328Z,0.6
2023-03-17T01:50:35.330Z,0.6
2023-03-17T02:02:35.375Z,0.6
2023-03-17T02:14:35.336Z,0.7
2023-03-17T02:26:35.448Z,0.7
2023-03-17T02:38:35.328Z,0.7
2023-03-17T02:50:35.354Z,0.7
2023-03-17T03:02:35.474Z,0.7
2023-03-17T03:14:35.332Z,0.6
2023-03-17T03:26:35.333Z,0.6
2023-03-17T03:38:35.350Z,0.7
2023-03-17T03:50:35.337Z,0.7
2023-03-17T04:02:35.361Z,0.7
2023-03-17T04:14:35.376Z,0.7
2023-03-17T04:26:35.335Z,0.7
2023-03-17T04:38:35.335Z,0.8
2023-03-17T04:50:35.336Z,0.8
2023-03-17T05:02:36.636Z,0.8
2023-03-17T05:14:35.338Z,0.7
2023-03-17T05:26:35.343Z,0.7
2023-03-17T05:38:35.343Z,0.6
2023-03-17T05:50:35.348Z,0.6
2023-03-17T06:02:35.410Z,0.6
2023-03-17T06:14:35.336Z,0.6
2023-03-17T06:26:35.344Z,0.6
2023-03-17T06:38:35.340Z,0.5
2023-03-17T06:50:35.346Z,0.5
2023-03-17T07:02:35.339Z,0.5
2023-03-17T07:14:35.437Z,0.6
2023-03-17T07:26:35.330Z,0.6
2023-03-17T07:38:35.330Z,0.5
2023-03-17T07:50:35.342Z,0.5
2023-03-17T08:02:35.348Z,0.5
2023-03-17T08:14:35.331Z,0.7
2023-03-17T08:26:35.326Z,0.7
2023-03-17T08:38:35.341Z,0.6
2023-03-17T08:50:35.346Z,0.6
2023-03-17T09:02:35.353Z,0.6
2023-03-17T09:14:43.156Z,0.9
2023-03-17T09:26:35.329Z,0.9
2023-03-17T09:38:35.338Z,0.8
2023-03-17T09:50:35.337Z,0.8
2023-03-17T10:02:35.341Z,0.8
2023-03-17T10:14:35.326Z,0.6
2023-03-17T10:26:35.329Z,0.6
2023-03-17T10:38:35.332Z,0.6
2023-03-17T10:50:35.335Z,0.6
2023-03-17T11:02:35.357Z,0.6
2023-03-17T11:14:35.343Z,0.8
2023-03-17T11:26:35.334Z,0.8
2023-03-17T11:38:35.352Z,0.8
2023-03-17T11:50:35.333Z,0.8
2023-03-17T12:02:35.358Z,0.8
2023-03-17T12:14:35.334Z,0.8
2023-03-17T12:26:35.333Z,0.8
2023-03-17T12:38:35.329Z,0.8
2023-03-17T12:50:35.357Z,0.8
2023-03-17T13:02:35.339Z,0.8
2023-03-17T13:14:35.331Z,1.0
2023-03-17T13:26:35.328Z,1.0
2023-03-17T13:38:35.351Z,2.2
2023-03-17T13:50:35.334Z,2.2
2023-03-17T14:02:35.406Z,2.2
2023-03-17T14:14:35.340Z,2.0
2023-03-17T14:26:35.332Z,2.0
2023-03-17T14:38:35.363Z,1.6
2023-03-17T14:50:35.557Z,1.6
2023-03-17T15:02:35.501Z,1.6
2023-03-17T15:14:35.349Z,3.5
2023-03-17T15:26:35.327Z,3.5
2023-03-17T15:38:35.392Z,2.0
2023-03-17T15:50:35.384Z,2.0
2023-03-17T16:02:35.542Z,2.0
2023-03-17T16:14:35.332Z,2.3
2023-03-17T16:26:35.338Z,2.3
2023-03-17T16:38:35.362Z,1.8
2023-03-17T16:50:35.334Z,1.8
2023-03-17T17:02:35.510Z,1.8
2023-03-17T17:14:35.344Z,1.8
2023-03-17T17:26:35.329Z,1.8
2023-03-17T17:38:35.355Z,1.7
2023-03-17T17:50:35.341Z,1.7
2023-03-17T18:02:35.348Z,1.7
2023-03-17T18:14:35.326Z,1.7
2023-03-17T18:26:35.352Z,1.7
2023-03-17T18:38:35.339Z,2.0
2023-03-17T18:50:35.432Z,2.0
2023-03-17T19:02:35.338Z,2.0
2023-03-17T19:14:35.358Z,2.0
2023-03-17T19:26:35.341Z,2.0
2023-03-17T19:38:35.347Z,1.9
2023-03-17T19:50:35.472Z,1.9
2023-03-17T20:02:35.350Z,1.9
2023-03-17T20:14:35.339Z,1.6
2023-03-17T20:26:35.348Z,1.6
2023-03-17T20:38:35.342Z,1.7
2023-03-17T20:50:35.358Z,1.7
2023-03-17T21:02:35.415Z,1.7
2023-03-17T21:14:35.346Z,1.8
2023-03-17T21:26:35.351Z,1.8
2023-03-17T21:38:35.397Z,1.7
2023-03-17T21:50:35.557Z,1.7
2023-03-17T22:02:35.343Z,1.7
2023-03-17T22:14:35.349Z,1.3
2023-03-17T22:26:35.330Z,1.3
2023-03-17T22:38:35.335Z,1.2
2023-03-17T22:50:35.337Z,1.2
2023-03-17T23:02:35.326Z,1.2
2023-03-17T23:14:35.337Z,1.2
2023-03-17T23:26:35.354Z,1.2
2023-03-17T23:38:35.341Z,1.0
2023-03-17T23:50:35.345Z,1.0
